Time;durP1;ratioP1;P1;durP2;ratioP2;P2;SDS_P1;SDS_P2;PMS_P1;PMS_P2;Temp;Humidity;BMP_temperature;BMP_pressure;BME280_temperature;BME280_humidity;BME280_pressure;Samples;Min_cycle;Max_cycle;Signal;HPM_P1;HPM_P2
2021/11/11 01:55:03;;;;;;;30.67;19.83;;;153.80;2252.80;;;;;;5867828;24;20143;31
2021/11/11 03:29:00;;;;;;;22.20;15.30;;;128.30;2252.80;;;;;;5867635;24;19945;31
2021/11/11 03:45:16;;;;;;;21.67;14.60;;;128.30;2252.80;;;;;;5866813;24;21170;31
2021/11/11 05:39:25;;;;;;;61.60;34.20;;;128.70;2252.80;;;;;;5863808;24;20236;31
2021/11/11 05:49:07;;;;;;;73.15;41.80;;;128.60;2252.80;;;;;;4810957;29;20089;-84
2021/11/11 05:51:57;;;;;;;66.78;39.03;;;128.60;2252.80;;;;;;4812647;29;20031;-86
2021/11/11 08:19:07;;;;;;;26.13;16.98;;;230.60;2252.80;;;;;;4798955;30;20067;-95
2021/11/11 08:22:26;;;;;;;37.20;20.92;;;230.80;2252.80;;;;;;4800962;30;20067;-94
2021/11/11 08:24:55;;;;;;;27.35;17.75;;;231.00;2227.20;;;;;;4797123;30;20036;-94
2021/11/11 08:27:41;;;;;;;32.63;18.58;;;231.10;2201.60;;;;;;4763327;30;20036;-93
2021/11/11 08:30:28;;;;;;;23.73;15.20;;;231.10;2176.00;;;;;;4790398;30;20126;-93
2021/11/11 08:32:55;;;;;;;25.83;16.85;;;231.10;2201.60;;;;;;4777552;30;20031;-94
2021/11/11 08:38:27;;;;;;;23.70;15.82;;;231.20;2176.00;;;;;;4792340;30;20042;-93
2021/11/11 08:40:57;;;;;;;26.77;16.00;;;231.20;2176.00;;;;;;4775865;30;20027;-94
2021/11/11 08:43:23;;;;;;;29.50;16.30;;;256.60;2099.20;;;;;;4789752;30;20118;-93
2021/11/11 08:45:49;;;;;;;25.70;17.00;;;307.80;1894.40;;;;;;4771472;30;20122;-93
2021/11/11 08:48:16;;;;;;;24.60;16.42;;;333.20;1792.00;;;;;;4778167;29;20064;-95
2021/11/11 08:50:42;;;;;;;21.38;14.65;;;332.80;1817.60;;;;;;4790659;29;20023;-95
2021/11/11 08:53:12;;;;;;;22.90;15.20;;;308.10;1766.40;;;;;;4790609;29;20027;-94
2021/11/11 08:55:39;;;;;;;20.55;13.70;;;333.50;1740.80;;;;;;4790446;29;20037;-95
2021/11/11 08:58:08;;;;;;;23.70;15.05;;;333.20;1740.80;;;;;;4790794;29;20122;-95
2021/11/11 09:00:39;;;;;;;21.00;14.07;;;333.20;1740.80;;;;;;4788365;29;20030;-93
2021/11/11 09:03:06;;;;;;;22.70;14.88;;;333.50;1740.80;;;;;;4790325;29;20393;-94
2021/11/11 09:05:35;;;;;;;21.48;13.10;;;358.60;1664.00;;;;;;4788401;29;20064;-93
2021/11/11 09:08:03;;;;;;;17.90;12.60;;;358.90;1638.40;;;;;;4790203;29;20031;-95
2021/11/11 09:10:30;;;;;;;17.83;12.45;;;435.40;1433.60;;;;;;4790993;29;20033;-96
2021/11/11 09:12:58;;;;;;;24.35;14.70;;;486.50;1382.40;;;;;;4791718;29;20030;-96
2021/11/11 09:15:27;;;;;;;23.52;15.63;;;461.70;1305.60;;;;;;4791627;29;20059;-93
2021/11/11 09:17:59;;;;;;;31.30;17.48;;;486.90;1203.20;;;;;;4790515;29;20043;-95
2021/11/11 09:20:26;;;;;;;25.60;18.17;;;512.60;1126.40;;;;;;4790005;29;20038;-94
2021/11/11 09:22:53;;;;;;;23.00;14.77;;;588.90;1049.60;;;;;;4790116;29;20023;-93
2021/11/11 09:25:19;;;;;;;18.42;14.27;;;589.30;972.80;;;;;;4789717;29;20054;-94
2021/11/11 09:27:46;;;;;;;16.98;13.57;;;614.60;921.60;;;;;;4789518;29;20070;-94
2021/11/11 09:30:18;;;;;;;16.95;12.63;;;615.30;896.00;;;;;;4790208;29;20114;-95
2021/11/11 09:32:45;;;;;;;12.13;9.60;;;614.80;896.00;;;;;;4790332;29;20113;-94
2021/11/11 09:35:11;;;;;;;15.27;10.77;;;640.60;844.80;;;;;;4804619;29;20481;-95
2021/11/11 09:37:39;;;;;;;16.42;12.50;;;691.70;793.60;;;;;;4790051;29;20134;-96
2021/11/11 09:40:07;;;;;;;14.38;10.82;;;717.60;768.00;;;;;;4790479;29;20031;-94
2021/11/11 09:42:34;;;;;;;15.45;10.45;;;717.70;768.00;;;;;;4790406;29;20027;-94
2021/11/11 09:45:02;;;;;;;28.48;14.38;;;743.00;793.60;;;;;;4790717;29;20038;-93
2021/11/11 09:47:28;;;;;;;20.08;11.32;;;743.10;691.20;;;;;;4790145;29;20042;-93
2021/11/11 09:49:54;;;;;;;15.43;10.50;;;742.70;742.40;;;;;;4790198;29;20023;-94
2021/11/11 09:52:27;;;;;;;16.20;12.10;;;768.20;691.20;;;;;;4790188;29;20037;-92
2021/11/11 10:00:24;;;;;;;12.85;11.27;;;794.10;665.60;;;;;;4806087;29;20054;-93
2021/11/11 10:02:52;;;;;;;16.58;11.95;;;742.40;742.40;;;;;;4789284;29;20118;-92
2021/11/11 10:05:18;;;;;;;14.85;11.85;;;665.80;768.00;;;;;;4789375;29;20476;-91
2021/11/11 10:07:44;;;;;;;15.35;12.02;;;614.90;819.20;;;;;;4789396;29;20031;-92
2021/11/11 10:10:31;;;;;;;14.45;11.38;;;563.70;947.20;;;;;;4789400;29;20034;-92
2021/11/11 10:13:20;;;;;;;19.60;11.52;;;538.00;998.40;;;;;;4792648;29;20027;-96
2021/11/11 10:16:16;;;;;;;17.02;11.98;;;538.20;998.40;;;;;;4791358;29;20045;-94
2021/11/11 10:18:58;;;;;;;26.27;13.02;;;538.30;972.80;;;;;;4792532;29;20043;-96
2021/11/11 10:21:41;;;;;;;24.20;16.80;;;;;;;;;;4790882;29;20056;-96
2021/11/11 10:24:22;;;;;;;23.73;15.95;;;486.50;1177.60;;;;;;4805387;29;20038;-96
2021/11/11 10:27:13;;;;;;;19.48;13.98;;;460.80;1228.80;;;;;;4791100;29;20038;-94
2021/11/11 10:29:58;;;;;;;20.10;12.18;;;435.70;1280.00;;;;;;4807752;29;20042;-94
2021/11/11 10:32:34;;;;;;;21.15;13.52;;;410.50;1305.60;;;;;;4790570;29;20049;-94
2021/11/11 10:35:15;;;;;;;15.93;11.63;;;410.20;1331.20;;;;;;4792458;29;20519;-96
2021/11/11 10:38:12;;;;;;;29.17;17.98;;;461.00;1254.40;;;;;;4790190;29;20031;-93
2021/11/11 10:40:48;;;;;;;19.55;14.13;;;512.60;1075.20;;;;;;4784532;29;20039;-95
2021/11/11 10:43:22;;;;;;;19.98;14.25;;;537.80;1024.00;;;;;;4792636;29;20072;-94
2021/11/11 10:45:49;;;;;;;16.88;11.52;;;;;;;;;;4792437;29;20027;-93
2021/11/11 10:48:18;;;;;;;16.85;11.20;;;486.70;1152.00;;;;;;4808002;29;20066;-93
2021/11/11 10:50:47;;;;;;;16.33;12.57;;;512.90;1049.60;;;;;;4792936;29;20031;-94
2021/11/11 10:53:18;;;;;;;14.63;11.48;;;512.70;1049.60;;;;;;4792990;29;20031;-94
2021/11/11 10:55:58;;;;;;;17.02;11.02;;;538.20;998.40;;;;;;4791395;29;20087;-94
2021/11/11 10:58:36;;;;;;;14.63;10.88;;;512.50;1024.00;;;;;;4807092;29;20027;-95
2021/11/11 11:01:06;;;;;;;13.75;9.82;;;486.40;1152.00;;;;;;4791852;29;20031;-94
2021/11/11 11:03:36;;;;;;;13.55;10.93;;;435.90;1254.40;;;;;;4792532;29;20164;-95
2021/11/11 11:06:07;;;;;;;23.73;13.68;;;435.30;1331.20;;;;;;4792787;29;20027;-95
2021/11/11 11:08:46;;;;;;;15.63;10.90;;;410.00;1408.00;;;;;;4793138;29;20073;-94
2021/11/11 11:11:23;;;;;;;15.98;11.20;;;409.60;1408.00;;;;;;4791204;29;20043;-93
2021/11/11 11:13:55;;;;;;;16.60;11.80;;;384.50;1433.60;;;;;;4804422;29;20166;-93
2021/11/11 11:16:27;;;;;;;19.50;13.27;;;384.40;1433.60;;;;;;4791514;29;20034;-94
2021/11/11 11:19:03;;;;;;;15.43;10.73;;;384.40;1459.20;;;;;;4791670;29;20042;-95
2021/11/11 11:21:35;;;;;;;18.63;12.30;;;384.20;1459.20;;;;;;4790789;29;20080;-96
2021/11/11 11:24:03;;;;;;;16.40;10.73;;;384.10;1484.80;;;;;;4789224;29;20030;-95
2021/11/11 11:26:32;;;;;;;22.08;12.38;;;384.10;1484.80;;;;;;4794418;29;20027;-95
2021/11/11 11:29:10;;;;;;;17.90;12.20;;;359.30;1536.00;;;;;;4794567;29;20035;-95
2021/11/11 11:32:03;;;;;;;15.70;11.18;;;384.00;1510.40;;;;;;4809863;29;20031;-96
2021/11/11 11:34:31;;;;;;;15.43;10.32;;;359.30;1510.40;;;;;;4790774;29;20129;-95
2021/11/11 11:37:02;;;;;;;27.65;17.63;;;359.10;1536.00;;;;;;4794410;29;20034;-95
2021/11/11 11:39:36;;;;;;;82.47;39.50;;;359.20;1536.00;;;;;;4793556;29;20027;-95
2021/11/11 11:42:16;;;;;;;46.35;31.25;;;359.30;1510.40;;;;;;4789818;29;20031;-95
2021/11/11 11:45:21;;;;;;;32.97;16.92;;;384.00;1510.40;;;;;;4789993;29;20027;-96
2021/11/11 11:47:58;;;;;;;22.33;12.65;;;359.30;1484.80;;;;;;4804944;29;20070;-96
2021/11/11 11:50:39;;;;;;;20.73;12.80;;;384.00;1536.00;;;;;;4799516;29;20026;-96
2021/11/11 11:53:08;;;;;;;20.30;11.85;;;384.00;1484.80;;;;;;4811401;29;20034;-96
2021/11/11 11:58:20;;;;;;;26.98;16.98;;;384.20;1484.80;;;;;;4827581;29;20026;-95
2021/11/11 12:01:56;;;;;;;31.48;15.82;;;435.90;1331.20;;;;;;4811486;29;20129;-96
2021/11/11 12:14:28;;;;;;;26.95;15.40;;;461.00;1280.00;;;;;;4809138;29;20162;-96
2021/11/11 12:39:58;;;;;;;31.50;13.35;;;691.50;768.00;;;;;;4807756;29;20096;-92
2021/11/11 12:42:39;;;;;;;21.95;11.98;;;666.40;768.00;;;;;;4791834;29;20035;-96
2021/11/11 12:45:24;;;;;;;17.15;13.73;;;666.20;793.60;;;;;;4806281;29;20453;-96
2021/11/11 12:47:56;;;;;;;18.80;13.95;;;742.40;793.60;;;;;;4791917;29;20127;-96
2021/11/11 12:50:33;;;;;;;21.05;16.95;;;794.20;691.20;;;;;;4806947;29;20058;-96
2021/11/11 12:53:16;;;;;;;29.40;14.98;;;819.20;665.60;;;;;;4808305;29;20038;-94
2021/11/11 12:56:21;;;;;;;20.42;15.32;;;717.30;742.40;;;;;;4806742;29;20057;-96
2021/11/11 12:58:46;;;;;;;;;;;;;;;;;;4806778;29;20286;-95
2021/11/11 13:01:33;;;;;;;18.02;13.32;;;665.90;793.60;;;;;;4806068;29;19916;-96
2021/11/11 13:03:59;;;;;;;18.02;12.75;;;;;;;;;;4806640;29;20080;-95
2021/11/11 13:06:45;;;;;;;26.67;19.90;;;768.30;691.20;;;;;;4806438;29;20035;-96
2021/11/11 13:09:20;;;;;;;52.78;36.08;;;794.30;640.00;;;;;;4791312;29;20027;-94
2021/11/11 13:11:50;;;;;;;41.42;32.88;;;819.90;588.80;;;;;;4806625;29;20038;-96
2021/11/11 13:14:41;;;;;;;31.35;17.98;;;845.00;614.40;;;;;;4790996;29;20497;-95
2021/11/11 13:17:09;;;;;;;55.20;41.20;;;;;;;;;;4786158;29;20043;-94
2021/11/11 13:19:44;;;;;;;56.47;42.38;;;;;;;;;;4805670;29;20046;-94
2021/11/11 16:24:26;;;;;;;1213.63;631.47;;;256.50;2073.60;;;;;;4807864;29;20027;-95
2021/11/11 16:26:53;;;;;;;1062.82;578.35;;;256.50;2099.20;;;;;;4791465;29;20543;-93
2021/11/11 16:29:20;;;;;;;775.60;423.55;;;256.40;2099.20;;;;;;4791658;29;20035;-93
2021/11/11 16:31:46;;;;;;;577.60;300.73;;;256.30;2099.20;;;;;;4791451;29;20072;-92
2021/11/11 16:34:12;;;;;;;972.97;508.27;;;256.30;2099.20;;;;;;4791749;29;20495;-95
2021/11/11 16:36:42;;;;;;;1230.47;630.75;;;256.20;2099.20;;;;;;4791456;29;20050;-92
2021/11/11 16:39:13;;;;;;;1155.70;592.15;;;256.10;2124.80;;;;;;4791564;29;20039;-94
2021/11/11 16:41:40;;;;;;;1056.80;535.40;;;256.10;2124.80;;;;;;4789138;29;20054;-93
2021/11/11 16:44:09;;;;;;;1483.72;695.38;;;256.00;2124.80;;;;;;4791214;29;20034;-92
2021/11/11 16:46:37;;;;;;;846.53;405.90;;;256.00;2124.80;;;;;;4791319;29;20374;-93
2021/11/11 16:49:04;;;;;;;729.28;341.45;;;256.00;2124.80;;;;;;4791431;29;20035;-93
2021/11/11 16:51:30;;;;;;;1213.68;571.38;;;256.00;2124.80;;;;;;4791530;29;20035;-94
2021/11/11 16:53:56;;;;;;;1396.55;599.85;;;231.30;2150.40;;;;;;4791308;29;20442;-92
2021/11/11 16:56:23;;;;;;;722.38;270.92;;;231.20;2150.40;;;;;;4791158;29;20042;-94
2021/11/11 16:58:49;;;;;;;1038.13;420.27;;;231.20;2124.80;;;;;;4791127;29;20084;-93
2021/11/11 17:01:15;;;;;;;1081.03;456.10;;;231.20;2150.40;;;;;;4791021;29;20039;-91
2021/11/11 17:03:41;;;;;;;1054.63;464.92;;;231.20;2150.40;;;;;;4791179;29;20473;-91
2021/11/11 17:06:07;;;;;;;805.65;359.98;;;231.10;2150.40;;;;;;4790813;29;20083;-92
2021/11/11 17:08:33;;;;;;;600.63;268.92;;;231.10;2150.40;;;;;;4791198;29;20042;-92
2021/11/11 17:10:59;;;;;;;558.90;246.75;;;231.00;2150.40;;;;;;4790690;29;20047;-93
2021/11/11 17:13:25;;;;;;;552.53;248.30;;;231.00;2150.40;;;;;;4790554;29;20038;-93
2021/11/11 17:15:51;;;;;;;228.60;99.63;;;231.00;2150.40;;;;;;4790489;29;20039;-94
2021/11/11 17:18:20;;;;;;;301.90;119.85;;;230.90;2124.80;;;;;;4790763;29;20057;-93
2021/11/11 17:20:46;;;;;;;384.20;137.60;;;231.00;2124.80;;;;;;4791956;29;20485;-92
2021/11/11 17:23:20;;;;;;;490.80;195.20;;;231.00;2124.80;;;;;;4794164;29;20042;-94
2021/11/11 17:30:50;;;;;;;819.05;329.15;;;230.90;2150.40;;;;;;4810335;29;20045;-91
2021/11/11 17:33:18;;;;;;;925.78;375.48;;;230.80;2150.40;;;;;;4793483;29;20070;-92
2021/11/11 17:35:45;;;;;;;1114.05;448.67;;;230.80;2150.40;;;;;;4816449;29;20115;-94
2021/11/11 17:38:11;;;;;;;884.35;349.33;;;230.80;2150.40;;;;;;4794393;29;20439;-94
2021/11/11 17:40:38;;;;;;;865.28;338.08;;;230.70;2150.40;;;;;;4794445;29;20088;-92
2021/11/11 17:43:05;;;;;;;842.13;335.58;;;230.70;2150.40;;;;;;4793934;29;20034;-91
2021/11/11 17:45:39;;;;;;;754.70;309.85;;;230.70;2150.40;;;;;;4791599;29;20038;-94
2021/11/11 17:48:05;;;;;;;;;;;230.60;2176.00;;;;;;4794404;29;20031;-92
2021/11/11 17:50:42;;;;;;;587.78;241.20;;;230.60;2176.00;;;;;;4806599;29;19913;-92
2021/11/11 17:53:09;;;;;;;551.63;234.05;;;230.60;2176.00;;;;;;4793743;29;20568;-93
2021/11/11 17:55:41;;;;;;;613.75;282.95;;;230.50;2176.00;;;;;;4793753;29;20039;-92
2021/11/11 17:58:09;;;;;;;666.95;320.95;;;230.50;2176.00;;;;;;4793716;29;20022;-92
2021/11/11 18:00:40;;;;;;;583.88;285.20;;;230.40;2176.00;;;;;;4793854;29;20046;-92
2021/11/11 18:03:06;;;;;;;223.90;93.40;;;230.40;2176.00;;;;;;4794102;29;20039;-93
2021/11/11 18:05:34;;;;;;;154.27;70.22;;;205.60;2201.60;;;;;;4793793;29;20038;-92
2021/11/11 18:08:10;;;;;;;140.63;69.03;;;205.50;2227.20;;;;;;4793892;29;20503;-93
2021/11/11 18:10:36;;;;;;;122.13;65.15;;;205.50;2201.60;;;;;;4793692;29;20116;-92
2021/11/11 18:13:04;;;;;;;87.68;49.00;;;205.40;2252.80;;;;;;4793721;29;20031;-94
2021/11/11 18:18:35;;;;;;;89.18;48.42;;;205.40;2252.80;;;;;;4810340;29;20078;-91
2021/11/11 18:21:01;;;;;;;148.75;79.45;;;205.30;2252.80;;;;;;4793962;29;20080;-91
2021/11/11 18:23:27;;;;;;;154.98;83.28;;;205.30;2252.80;;;;;;4793744;29;20035;-92
2021/11/11 18:25:53;;;;;;;138.60;79.90;;;205.30;2252.80;;;;;;4793611;29;20085;-91
2021/11/11 18:28:26;;;;;;;133.93;77.82;;;205.30;2252.80;;;;;;4793742;29;20035;-93
2021/11/11 18:30:55;;;;;;;133.13;72.97;;;205.20;2252.80;;;;;;4793599;29;20035;-92
2021/11/11 18:33:24;;;;;;;136.82;77.60;;;205.20;2252.80;;;;;;4792926;29;20126;-92
2021/11/11 18:35:54;;;;;;;142.70;77.30;;;205.10;2252.80;;;;;;4793331;29;20035;-92
